< < Back
Terminal Aerodrome Forecast


Current Version              Previous Versions:   1  2  3  4  5  6  7  8  9  

Terminal Aerodrome Forecast

960
FTUS42 KGSP 311125
TAFHKY
TAF
KHKY 311125Z 3112/0112 35006KT P6SM FEW060
     FM010900 33003KT P6SM FEW060=



Latest METAR

107
SAUS70 KWBC 311300
MTRHKY
METAR KHKY 311253Z 01004KT 10SM FEW060 23/16 A3005 RMK AO2 SLP153
T02280161


USA.gov is the U.S. government's official web portal to all federal, state and local government web resources and services.